sensor_id;sensor_type;location;lat;lon;timestamp;P1;durP1;ratioP1;P2;durP2;ratioP2
18302;SDS011;9277;37.980;23.748;2023-12-29T00:01:52;12.40;;;7.00;;
18302;SDS011;9277;37.980;23.748;2023-12-29T00:04:18;9.73;;;5.80;;
18302;SDS011;9277;37.980;23.748;2023-12-29T00:06:46;14.63;;;7.03;;
18302;SDS011;9277;37.980;23.748;2023-12-29T00:09:14;12.95;;;6.60;;
18302;SDS011;9277;37.980;23.748;2023-12-29T00:11:41;10.38;;;6.47;;
18302;SDS011;9277;37.980;23.748;2023-12-29T00:14:08;17.88;;;7.68;;
18302;SDS011;9277;37.980;23.748;2023-12-29T00:16:34;14.35;;;8.48;;
18302;SDS011;9277;37.980;23.748;2023-12-29T00:19:01;15.43;;;7.45;;
18302;SDS011;9277;37.980;23.748;2023-12-29T00:21:28;15.45;;;8.93;;
18302;SDS011;9277;37.980;23.748;2023-12-29T00:23:57;16.50;;;8.40;;
18302;SDS011;9277;37.980;23.748;2023-12-29T00:26:24;12.35;;;7.47;;
18302;SDS011;9277;37.980;23.748;2023-12-29T00:28:51;13.20;;;7.40;;
18302;SDS011;9277;37.980;23.748;2023-12-29T00:31:17;16.23;;;8.73;;
18302;SDS011;9277;37.980;23.748;2023-12-29T00:33:44;16.98;;;7.93;;
18302;SDS011;9277;37.980;23.748;2023-12-29T00:36:14;18.52;;;8.43;;
18302;SDS011;9277;37.980;23.748;2023-12-29T00:38:41;15.63;;;7.00;;
18302;SDS011;9277;37.980;23.748;2023-12-29T00:41:09;12.52;;;6.95;;
18302;SDS011;9277;37.980;23.748;2023-12-29T00:43:36;10.30;;;6.50;;
18302;SDS011;9277;37.980;23.748;2023-12-29T00:46:03;13.43;;;6.47;;
18302;SDS011;9277;37.980;23.748;2023-12-29T00:48:30;8.63;;;5.90;;
18302;SDS011;9277;37.980;23.748;2023-12-29T00:50:57;10.80;;;6.65;;
18302;SDS011;9277;37.980;23.748;2023-12-29T00:53:24;13.35;;;6.30;;
18302;SDS011;9277;37.980;23.748;2023-12-29T00:55:50;10.80;;;6.43;;
18302;SDS011;9277;37.980;23.748;2023-12-29T00:58:19;10.32;;;5.93;;
18302;SDS011;9277;37.980;23.748;2023-12-29T01:00:46;11.15;;;6.22;;
18302;SDS011;9277;37.980;23.748;2023-12-29T01:03:12;12.85;;;6.22;;
18302;SDS011;9277;37.980;23.748;2023-12-29T01:05:39;11.80;;;5.50;;
18302;SDS011;9277;37.980;23.748;2023-12-29T01:08:07;8.30;;;5.70;;
18302;SDS011;9277;37.980;23.748;2023-12-29T01:10:35;11.27;;;5.28;;
18302;SDS011;9277;37.980;23.748;2023-12-29T01:13:01;9.98;;;5.40;;
18302;SDS011;9277;37.980;23.748;2023-12-29T01:15:32;10.40;;;5.40;;
18302;SDS011;9277;37.980;23.748;2023-12-29T01:17:59;10.90;;;5.80;;
18302;SDS011;9277;37.980;23.748;2023-12-29T01:20:26;8.23;;;5.18;;
18302;SDS011;9277;37.980;23.748;2023-12-29T01:22:53;10.65;;;5.20;;
18302;SDS011;9277;37.980;23.748;2023-12-29T01:25:20;8.43;;;5.20;;
18302;SDS011;9277;37.980;23.748;2023-12-29T01:27:47;9.20;;;5.00;;
18302;SDS011;9277;37.980;23.748;2023-12-29T01:30:14;10.50;;;5.10;;
18302;SDS011;9277;37.980;23.748;2023-12-29T01:32:45;11.48;;;5.30;;
18302;SDS011;9277;37.980;23.748;2023-12-29T01:35:12;10.25;;;5.45;;
18302;SDS011;9277;37.980;23.748;2023-12-29T01:37:39;8.65;;;5.07;;
18302;SDS011;9277;37.980;23.748;2023-12-29T01:40:06;10.18;;;5.10;;
18302;SDS011;9277;37.980;23.748;2023-12-29T01:42:33;9.27;;;5.20;;
18302;SDS011;9277;37.980;23.748;2023-12-29T01:45:02;9.27;;;5.00;;
18302;SDS011;9277;37.980;23.748;2023-12-29T01:47:29;10.18;;;5.60;;
18302;SDS011;9277;37.980;23.748;2023-12-29T01:49:58;16.38;;;5.88;;
18302;SDS011;9277;37.980;23.748;2023-12-29T01:52:25;11.38;;;5.82;;
18302;SDS011;9277;37.980;23.748;2023-12-29T01:54:52;10.55;;;5.90;;
18302;SDS011;9277;37.980;23.748;2023-12-29T01:57:20;11.38;;;6.10;;
18302;SDS011;9277;37.980;23.748;2023-12-29T01:59:47;12.40;;;6.75;;
18302;SDS011;9277;37.980;23.748;2023-12-29T02:02:14;9.35;;;6.30;;
18302;SDS011;9277;37.980;23.748;2023-12-29T02:04:41;10.65;;;6.75;;
18302;SDS011;9277;37.980;23.748;2023-12-29T02:07:10;10.55;;;6.15;;
18302;SDS011;9277;37.980;23.748;2023-12-29T02:09:37;13.82;;;7.20;;
18302;SDS011;9277;37.980;23.748;2023-12-29T02:12:05;11.45;;;6.18;;
18302;SDS011;9277;37.980;23.748;2023-12-29T02:14:31;12.32;;;6.32;;
18302;SDS011;9277;37.980;23.748;2023-12-29T02:17:01;13.40;;;6.60;;
18302;SDS011;9277;37.980;23.748;2023-12-29T02:22:17;12.45;;;5.90;;
18302;SDS011;9277;37.980;23.748;2023-12-29T02:24:46;12.10;;;4.95;;
18302;SDS011;9277;37.980;23.748;2023-12-29T02:27:16;9.07;;;5.18;;
18302;SDS011;9277;37.980;23.748;2023-12-29T02:29:48;9.27;;;5.20;;
18302;SDS011;9277;37.980;23.748;2023-12-29T02:32:16;10.88;;;4.90;;
18302;SDS011;9277;37.980;23.748;2023-12-29T02:34:44;9.15;;;4.75;;
18302;SDS011;9277;37.980;23.748;2023-12-29T02:37:14;11.50;;;4.97;;
18302;SDS011;9277;37.980;23.748;2023-12-29T02:39:41;7.32;;;4.50;;
18302;SDS011;9277;37.980;23.748;2023-12-29T02:42:10;12.38;;;5.25;;
18302;SDS011;9277;37.980;23.748;2023-12-29T02:44:37;9.50;;;5.10;;
18302;SDS011;9277;37.980;23.748;2023-12-29T02:47:04;7.53;;;4.40;;
18302;SDS011;9277;37.980;23.748;2023-12-29T02:49:31;8.10;;;4.45;;
18302;SDS011;9277;37.980;23.748;2023-12-29T02:51:58;12.13;;;4.90;;
18302;SDS011;9277;37.980;23.748;2023-12-29T02:54:25;7.68;;;4.18;;
18302;SDS011;9277;37.980;23.748;2023-12-29T02:56:51;8.18;;;5.20;;
18302;SDS011;9277;37.980;23.748;2023-12-29T02:59:20;8.45;;;5.22;;
18302;SDS011;9277;37.980;23.748;2023-12-29T03:01:47;7.72;;;4.32;;
18302;SDS011;9277;37.980;23.748;2023-12-29T03:04:14;7.85;;;4.50;;
18302;SDS011;9277;37.980;23.748;2023-12-29T03:06:40;10.88;;;4.78;;
18302;SDS011;9277;37.980;23.748;2023-12-29T03:09:07;6.30;;;4.88;;
18302;SDS011;9277;37.980;23.748;2023-12-29T03:11:34;6.25;;;4.00;;
18302;SDS011;9277;37.980;23.748;2023-12-29T03:14:01;7.22;;;4.57;;
18302;SDS011;9277;37.980;23.748;2023-12-29T03:16:30;8.43;;;4.75;;
18302;SDS011;9277;37.980;23.748;2023-12-29T03:18:57;8.68;;;4.90;;
18302;SDS011;9277;37.980;23.748;2023-12-29T03:21:24;9.70;;;4.53;;
18302;SDS011;9277;37.980;23.748;2023-12-29T03:23:51;9.05;;;4.30;;
18302;SDS011;9277;37.980;23.748;2023-12-29T03:26:17;6.38;;;4.40;;
18302;SDS011;9277;37.980;23.748;2023-12-29T03:28:44;11.32;;;5.00;;
18302;SDS011;9277;37.980;23.748;2023-12-29T03:31:11;8.57;;;4.30;;
18302;SDS011;9277;37.980;23.748;2023-12-29T03:33:39;6.78;;;4.50;;
18302;SDS011;9277;37.980;23.748;2023-12-29T03:36:06;9.07;;;4.70;;
18302;SDS011;9277;37.980;23.748;2023-12-29T03:38:35;8.27;;;4.55;;
18302;SDS011;9277;37.980;23.748;2023-12-29T03:41:02;6.93;;;4.65;;
18302;SDS011;9277;37.980;23.748;2023-12-29T03:43:29;8.98;;;5.18;;
18302;SDS011;9277;37.980;23.748;2023-12-29T03:45:56;11.63;;;4.63;;
18302;SDS011;9277;37.980;23.748;2023-12-29T03:48:23;6.80;;;4.57;;
18302;SDS011;9277;37.980;23.748;2023-12-29T03:50:52;9.45;;;5.28;;
18302;SDS011;9277;37.980;23.748;2023-12-29T03:53:18;10.60;;;5.10;;
18302;SDS011;9277;37.980;23.748;2023-12-29T03:55:45;10.23;;;5.80;;
18302;SDS011;9277;37.980;23.748;2023-12-29T03:58:12;9.93;;;4.80;;
18302;SDS011;9277;37.980;23.748;2023-12-29T04:00:39;8.18;;;5.40;;
18302;SDS011;9277;37.980;23.748;2023-12-29T04:03:07;9.63;;;5.68;;
18302;SDS011;9277;37.980;23.748;2023-12-29T04:05:34;9.23;;;5.88;;
18302;SDS011;9277;37.980;23.748;2023-12-29T04:08:02;11.55;;;6.50;;
18302;SDS011;9277;37.980;23.748;2023-12-29T04:10:29;12.68;;;6.80;;
18302;SDS011;9277;37.980;23.748;2023-12-29T04:12:56;12.27;;;6.05;;
18302;SDS011;9277;37.980;23.748;2023-12-29T04:15:23;13.07;;;5.68;;
18302;SDS011;9277;37.980;23.748;2023-12-29T04:17:50;13.82;;;6.32;;
18302;SDS011;9277;37.980;23.748;2023-12-29T04:20:17;13.63;;;6.53;;
18302;SDS011;9277;37.980;23.748;2023-12-29T04:22:44;12.85;;;6.80;;
18302;SDS011;9277;37.980;23.748;2023-12-29T04:25:12;11.40;;;6.50;;
18302;SDS011;9277;37.980;23.748;2023-12-29T04:27:39;12.20;;;5.50;;
18302;SDS011;9277;37.980;23.748;2023-12-29T04:30:07;12.65;;;6.35;;
18302;SDS011;9277;37.980;23.748;2023-12-29T04:32:33;10.23;;;5.43;;
18302;SDS011;9277;37.980;23.748;2023-12-29T04:35:00;13.63;;;5.93;;
18302;SDS011;9277;37.980;23.748;2023-12-29T04:37:27;9.30;;;5.57;;
18302;SDS011;9277;37.980;23.748;2023-12-29T04:39:54;11.18;;;5.55;;
18302;SDS011;9277;37.980;23.748;2023-12-29T04:42:23;13.10;;;5.57;;
18302;SDS011;9277;37.980;23.748;2023-12-29T04:44:50;13.93;;;5.18;;
18302;SDS011;9277;37.980;23.748;2023-12-29T04:47:16;11.52;;;5.22;;
18302;SDS011;9277;37.980;23.748;2023-12-29T04:49:43;8.57;;;5.03;;
18302;SDS011;9277;37.980;23.748;2023-12-29T04:52:10;7.10;;;4.50;;
18302;SDS011;9277;37.980;23.748;2023-12-29T04:54:37;8.43;;;5.43;;
18302;SDS011;9277;37.980;23.748;2023-12-29T04:57:04;8.90;;;4.65;;
18302;SDS011;9277;37.980;23.748;2023-12-29T04:59:32;9.88;;;4.70;;
18302;SDS011;9277;37.980;23.748;2023-12-29T05:01:59;9.93;;;4.82;;
18302;SDS011;9277;37.980;23.748;2023-12-29T05:04:26;9.85;;;4.70;;
18302;SDS011;9277;37.980;23.748;2023-12-29T05:06:53;7.07;;;4.63;;
18302;SDS011;9277;37.980;23.748;2023-12-29T05:09:19;9.27;;;4.80;;
18302;SDS011;9277;37.980;23.748;2023-12-29T05:11:48;8.52;;;4.63;;
18302;SDS011;9277;37.980;23.748;2023-12-29T05:14:16;12.20;;;5.30;;
18302;SDS011;9277;37.980;23.748;2023-12-29T05:16:46;10.05;;;5.55;;
18302;SDS011;9277;37.980;23.748;2023-12-29T05:19:13;9.73;;;4.43;;
18302;SDS011;9277;37.980;23.748;2023-12-29T05:21:43;14.32;;;5.65;;
18302;SDS011;9277;37.980;23.748;2023-12-29T05:24:10;8.80;;;5.30;;
18302;SDS011;9277;37.980;23.748;2023-12-29T05:26:37;10.27;;;4.68;;
18302;SDS011;9277;37.980;23.748;2023-12-29T05:29:07;15.63;;;4.65;;
18302;SDS011;9277;37.980;23.748;2023-12-29T05:31:34;9.93;;;5.45;;
18302;SDS011;9277;37.980;23.748;2023-12-29T05:34:02;8.55;;;5.40;;
18302;SDS011;9277;37.980;23.748;2023-12-29T05:36:29;10.85;;;5.55;;
18302;SDS011;9277;37.980;23.748;2023-12-29T05:38:56;11.52;;;5.15;;
18302;SDS011;9277;37.980;23.748;2023-12-29T05:41:23;12.02;;;5.68;;
18302;SDS011;9277;37.980;23.748;2023-12-29T05:43:50;12.07;;;6.10;;
18302;SDS011;9277;37.980;23.748;2023-12-29T05:46:16;11.20;;;5.03;;
18302;SDS011;9277;37.980;23.748;2023-12-29T05:48:43;10.82;;;5.43;;
18302;SDS011;9277;37.980;23.748;2023-12-29T05:51:12;9.35;;;5.45;;
18302;SDS011;9277;37.980;23.748;2023-12-29T05:53:40;8.85;;;5.60;;
18302;SDS011;9277;37.980;23.748;2023-12-29T05:56:07;7.70;;;5.43;;
18302;SDS011;9277;37.980;23.748;2023-12-29T05:58:34;9.77;;;5.00;;
18302;SDS011;9277;37.980;23.748;2023-12-29T06:01:01;12.52;;;5.80;;
18302;SDS011;9277;37.980;23.748;2023-12-29T06:03:28;11.57;;;6.35;;
18302;SDS011;9277;37.980;23.748;2023-12-29T06:05:55;11.80;;;5.68;;
18302;SDS011;9277;37.980;23.748;2023-12-29T06:08:23;8.73;;;5.18;;
18302;SDS011;9277;37.980;23.748;2023-12-29T06:10:50;8.93;;;4.68;;
18302;SDS011;9277;37.980;23.748;2023-12-29T06:13:17;8.80;;;4.68;;
18302;SDS011;9277;37.980;23.748;2023-12-29T06:15:44;10.98;;;5.55;;
18302;SDS011;9277;37.980;23.748;2023-12-29T06:18:11;9.48;;;5.32;;
18302;SDS011;9277;37.980;23.748;2023-12-29T06:20:38;10.68;;;5.05;;
18302;SDS011;9277;37.980;23.748;2023-12-29T06:23:04;10.90;;;5.88;;
18302;SDS011;9277;37.980;23.748;2023-12-29T06:25:33;9.13;;;4.90;;
18302;SDS011;9277;37.980;23.748;2023-12-29T06:27:59;9.52;;;5.05;;
18302;SDS011;9277;37.980;23.748;2023-12-29T06:30:28;16.08;;;5.97;;
18302;SDS011;9277;37.980;23.748;2023-12-29T06:32:55;10.65;;;5.15;;
18302;SDS011;9277;37.980;23.748;2023-12-29T06:35:21;8.98;;;5.22;;
18302;SDS011;9277;37.980;23.748;2023-12-29T06:37:48;10.82;;;5.15;;
18302;SDS011;9277;37.980;23.748;2023-12-29T06:40:16;11.05;;;5.05;;
18302;SDS011;9277;37.980;23.748;2023-12-29T06:42:44;11.48;;;5.30;;
18302;SDS011;9277;37.980;23.748;2023-12-29T06:45:11;12.02;;;5.22;;
18302;SDS011;9277;37.980;23.748;2023-12-29T06:47:38;9.68;;;5.18;;
18302;SDS011;9277;37.980;23.748;2023-12-29T06:50:06;12.02;;;5.05;;
18302;SDS011;9277;37.980;23.748;2023-12-29T06:52:37;11.40;;;5.32;;
18302;SDS011;9277;37.980;23.748;2023-12-29T06:55:04;8.82;;;4.80;;
18302;SDS011;9277;37.980;23.748;2023-12-29T06:57:31;15.60;;;5.65;;
18302;SDS011;9277;37.980;23.748;2023-12-29T07:00:00;11.60;;;5.00;;
18302;SDS011;9277;37.980;23.748;2023-12-29T07:02:27;11.30;;;5.18;;
18302;SDS011;9277;37.980;23.748;2023-12-29T07:04:53;20.23;;;5.88;;
18302;SDS011;9277;37.980;23.748;2023-12-29T07:07:20;11.57;;;5.63;;
18302;SDS011;9277;37.980;23.748;2023-12-29T07:09:47;9.85;;;5.28;;
18302;SDS011;9277;37.980;23.748;2023-12-29T07:12:14;13.27;;;5.70;;
18302;SDS011;9277;37.980;23.748;2023-12-29T07:14:41;9.75;;;5.55;;
18302;SDS011;9277;37.980;23.748;2023-12-29T07:17:09;14.68;;;5.63;;
18302;SDS011;9277;37.980;23.748;2023-12-29T07:19:36;9.20;;;5.47;;
18302;SDS011;9277;37.980;23.748;2023-12-29T07:22:03;10.80;;;5.63;;
18302;SDS011;9277;37.980;23.748;2023-12-29T07:24:32;14.00;;;5.65;;
18302;SDS011;9277;37.980;23.748;2023-12-29T07:26:59;11.00;;;5.45;;
18302;SDS011;9277;37.980;23.748;2023-12-29T07:29:26;10.10;;;5.38;;
18302;SDS011;9277;37.980;23.748;2023-12-29T07:31:53;10.38;;;5.68;;
18302;SDS011;9277;37.980;23.748;2023-12-29T07:34:21;18.90;;;5.45;;
18302;SDS011;9277;37.980;23.748;2023-12-29T07:36:48;13.95;;;5.50;;
18302;SDS011;9277;37.980;23.748;2023-12-29T07:39:15;9.48;;;5.63;;
18302;SDS011;9277;37.980;23.748;2023-12-29T07:41:42;11.05;;;4.95;;
18302;SDS011;9277;37.980;23.748;2023-12-29T07:44:10;9.50;;;4.85;;
18302;SDS011;9277;37.980;23.748;2023-12-29T07:46:37;7.72;;;4.65;;
18302;SDS011;9277;37.980;23.748;2023-12-29T07:49:04;10.73;;;5.03;;
18302;SDS011;9277;37.980;23.748;2023-12-29T07:51:32;11.65;;;5.13;;
18302;SDS011;9277;37.980;23.748;2023-12-29T07:53:59;10.32;;;5.30;;
18302;SDS011;9277;37.980;23.748;2023-12-29T07:56:26;9.68;;;4.90;;
18302;SDS011;9277;37.980;23.748;2023-12-29T07:58:52;10.73;;;5.88;;
18302;SDS011;9277;37.980;23.748;2023-12-29T08:01:19;9.63;;;4.95;;
18302;SDS011;9277;37.980;23.748;2023-12-29T08:03:46;12.90;;;5.45;;
18302;SDS011;9277;37.980;23.748;2023-12-29T08:06:13;8.55;;;4.85;;
18302;SDS011;9277;37.980;23.748;2023-12-29T08:08:42;12.55;;;4.68;;
18302;SDS011;9277;37.980;23.748;2023-12-29T08:11:12;8.57;;;4.65;;
18302;SDS011;9277;37.980;23.748;2023-12-29T08:13:39;10.32;;;4.28;;
18302;SDS011;9277;37.980;23.748;2023-12-29T08:16:06;11.73;;;4.28;;
18302;SDS011;9277;37.980;23.748;2023-12-29T08:18:33;8.10;;;4.07;;
18302;SDS011;9277;37.980;23.748;2023-12-29T08:21:01;8.00;;;4.32;;
18302;SDS011;9277;37.980;23.748;2023-12-29T08:23:28;9.35;;;4.53;;
18302;SDS011;9277;37.980;23.748;2023-12-29T08:25:57;12.40;;;5.07;;
18302;SDS011;9277;37.980;23.748;2023-12-29T08:28:24;9.63;;;4.35;;
18302;SDS011;9277;37.980;23.748;2023-12-29T08:30:51;7.35;;;4.13;;
18302;SDS011;9277;37.980;23.748;2023-12-29T08:33:18;11.80;;;4.32;;
18302;SDS011;9277;37.980;23.748;2023-12-29T08:35:45;11.98;;;4.78;;
18302;SDS011;9277;37.980;23.748;2023-12-29T08:38:12;7.63;;;3.90;;
18302;SDS011;9277;37.980;23.748;2023-12-29T08:40:39;6.65;;;4.10;;
18302;SDS011;9277;37.980;23.748;2023-12-29T08:43:08;10.05;;;4.45;;
18302;SDS011;9277;37.980;23.748;2023-12-29T08:45:35;12.00;;;4.82;;
18302;SDS011;9277;37.980;23.748;2023-12-29T08:48:03;7.28;;;3.95;;
18302;SDS011;9277;37.980;23.748;2023-12-29T08:50:30;5.97;;;3.65;;
18302;SDS011;9277;37.980;23.748;2023-12-29T08:52:57;10.20;;;4.53;;
18302;SDS011;9277;37.980;23.748;2023-12-29T08:55:24;6.45;;;4.00;;
18302;SDS011;9277;37.980;23.748;2023-12-29T08:57:51;7.93;;;4.20;;
18302;SDS011;9277;37.980;23.748;2023-12-29T09:00:19;9.95;;;4.30;;
18302;SDS011;9277;37.980;23.748;2023-12-29T09:02:46;10.70;;;4.50;;
18302;SDS011;9277;37.980;23.748;2023-12-29T09:05:13;8.82;;;4.00;;
18302;SDS011;9277;37.980;23.748;2023-12-29T09:07:41;7.18;;;3.95;;
18302;SDS011;9277;37.980;23.748;2023-12-29T09:10:08;11.27;;;4.68;;
18302;SDS011;9277;37.980;23.748;2023-12-29T09:12:36;8.73;;;4.28;;
18302;SDS011;9277;37.980;23.748;2023-12-29T09:15:04;9.20;;;5.18;;
18302;SDS011;9277;37.980;23.748;2023-12-29T09:17:32;9.60;;;4.47;;
18302;SDS011;9277;37.980;23.748;2023-12-29T09:19:59;11.10;;;4.85;;
18302;SDS011;9277;37.980;23.748;2023-12-29T09:22:26;9.50;;;5.43;;
18302;SDS011;9277;37.980;23.748;2023-12-29T09:24:53;16.52;;;5.47;;
18302;SDS011;9277;37.980;23.748;2023-12-29T09:27:20;9.75;;;5.07;;
18302;SDS011;9277;37.980;23.748;2023-12-29T09:29:47;11.55;;;4.90;;
18302;SDS011;9277;37.980;23.748;2023-12-29T09:32:14;11.23;;;4.85;;
18302;SDS011;9277;37.980;23.748;2023-12-29T09:34:42;9.02;;;4.28;;
18302;SDS011;9277;37.980;23.748;2023-12-29T09:37:09;5.53;;;3.83;;
18302;SDS011;9277;37.980;23.748;2023-12-29T09:39:36;10.95;;;4.45;;
18302;SDS011;9277;37.980;23.748;2023-12-29T09:42:03;11.10;;;4.43;;
18302;SDS011;9277;37.980;23.748;2023-12-29T09:44:30;6.32;;;3.97;;
18302;SDS011;9277;37.980;23.748;2023-12-29T09:47:01;8.48;;;4.30;;
18302;SDS011;9277;37.980;23.748;2023-12-29T09:49:29;6.78;;;3.65;;
18302;SDS011;9277;37.980;23.748;2023-12-29T09:51:59;7.82;;;3.70;;
18302;SDS011;9277;37.980;23.748;2023-12-29T09:54:26;9.15;;;4.07;;
18302;SDS011;9277;37.980;23.748;2023-12-29T09:56:54;7.35;;;3.60;;
18302;SDS011;9277;37.980;23.748;2023-12-29T09:59:20;10.35;;;3.72;;
18302;SDS011;9277;37.980;23.748;2023-12-29T10:01:48;6.68;;;3.45;;
18302;SDS011;9277;37.980;23.748;2023-12-29T10:04:15;4.95;;;3.63;;
18302;SDS011;9277;37.980;23.748;2023-12-29T10:06:43;5.57;;;3.63;;
18302;SDS011;9277;37.980;23.748;2023-12-29T10:09:13;7.22;;;3.95;;
18302;SDS011;9277;37.980;23.748;2023-12-29T10:11:42;6.85;;;3.63;;
18302;SDS011;9277;37.980;23.748;2023-12-29T10:14:11;9.82;;;3.85;;
18302;SDS011;9277;37.980;23.748;2023-12-29T10:16:42;7.15;;;3.53;;
18302;SDS011;9277;37.980;23.748;2023-12-29T10:19:14;7.32;;;3.95;;
18302;SDS011;9277;37.980;23.748;2023-12-29T10:21:44;7.45;;;4.03;;
18302;SDS011;9277;37.980;23.748;2023-12-29T10:24:16;7.80;;;4.13;;
18302;SDS011;9277;37.980;23.748;2023-12-29T10:26:44;6.22;;;4.43;;
18302;SDS011;9277;37.980;23.748;2023-12-29T10:29:11;8.73;;;4.25;;
18302;SDS011;9277;37.980;23.748;2023-12-29T10:31:38;9.70;;;4.38;;
18302;SDS011;9277;37.980;23.748;2023-12-29T10:36:53;9.25;;;4.00;;
18302;SDS011;9277;37.980;23.748;2023-12-29T10:39:22;9.10;;;4.68;;
18302;SDS011;9277;37.980;23.748;2023-12-29T10:41:49;14.50;;;5.80;;
18302;SDS011;9277;37.980;23.748;2023-12-29T10:44:16;10.82;;;4.70;;
18302;SDS011;9277;37.980;23.748;2023-12-29T10:46:43;12.90;;;4.40;;
18302;SDS011;9277;37.980;23.748;2023-12-29T10:49:10;9.38;;;4.35;;
18302;SDS011;9277;37.980;23.748;2023-12-29T10:51:37;5.63;;;3.78;;
18302;SDS011;9277;37.980;23.748;2023-12-29T10:54:04;5.05;;;3.55;;
18302;SDS011;9277;37.980;23.748;2023-12-29T10:56:33;8.32;;;3.85;;
18302;SDS011;9277;37.980;23.748;2023-12-29T10:59:00;6.68;;;3.78;;
18302;SDS011;9277;37.980;23.748;2023-12-29T11:01:28;10.68;;;4.00;;
18302;SDS011;9277;37.980;23.748;2023-12-29T11:03:58;7.32;;;4.07;;
18302;SDS011;9277;37.980;23.748;2023-12-29T11:06:26;10.30;;;4.78;;
18302;SDS011;9277;37.980;23.748;2023-12-29T11:08:53;11.45;;;5.13;;
18302;SDS011;9277;37.980;23.748;2023-12-29T11:11:20;9.38;;;4.93;;
18302;SDS011;9277;37.980;23.748;2023-12-29T11:13:49;8.23;;;4.65;;
18302;SDS011;9277;37.980;23.748;2023-12-29T11:16:16;13.85;;;4.70;;
18302;SDS011;9277;37.980;23.748;2023-12-29T11:18:46;9.80;;;4.15;;
18302;SDS011;9277;37.980;23.748;2023-12-29T11:21:13;9.70;;;4.50;;
18302;SDS011;9277;37.980;23.748;2023-12-29T11:23:42;10.00;;;4.32;;
18302;SDS011;9277;37.980;23.748;2023-12-29T11:26:09;10.35;;;4.50;;
18302;SDS011;9277;37.980;23.748;2023-12-29T11:28:36;10.85;;;5.35;;
18302;SDS011;9277;37.980;23.748;2023-12-29T11:31:04;9.35;;;5.15;;
18302;SDS011;9277;37.980;23.748;2023-12-29T11:33:34;7.70;;;4.47;;
18302;SDS011;9277;37.980;23.748;2023-12-29T11:36:06;12.02;;;5.30;;
18302;SDS011;9277;37.980;23.748;2023-12-29T11:38:38;9.52;;;4.50;;
18302;SDS011;9277;37.980;23.748;2023-12-29T11:41:10;9.38;;;4.15;;
18302;SDS011;9277;37.980;23.748;2023-12-29T11:43:40;6.65;;;3.90;;
18302;SDS011;9277;37.980;23.748;2023-12-29T11:46:08;10.07;;;3.40;;
18302;SDS011;9277;37.980;23.748;2023-12-29T11:48:55;6.65;;;3.65;;
18302;SDS011;9277;37.980;23.748;2023-12-29T11:51:33;4.57;;;3.35;;
18302;SDS011;9277;37.980;23.748;2023-12-29T11:54:00;7.93;;;3.35;;
18302;SDS011;9277;37.980;23.748;2023-12-29T11:56:30;6.45;;;3.75;;
18302;SDS011;9277;37.980;23.748;2023-12-29T11:59:11;5.72;;;3.10;;
18302;SDS011;9277;37.980;23.748;2023-12-29T12:01:40;9.80;;;4.28;;
18302;SDS011;9277;37.980;23.748;2023-12-29T12:06:48;9.13;;;4.47;;
18302;SDS011;9277;37.980;23.748;2023-12-29T12:09:16;7.05;;;3.60;;
18302;SDS011;9277;37.980;23.748;2023-12-29T12:11:43;6.90;;;3.90;;
18302;SDS011;9277;37.980;23.748;2023-12-29T12:14:11;12.95;;;4.55;;
18302;SDS011;9277;37.980;23.748;2023-12-29T12:16:48;6.22;;;4.00;;
18302;SDS011;9277;37.980;23.748;2023-12-29T12:19:16;8.20;;;4.25;;
18302;SDS011;9277;37.980;23.748;2023-12-29T12:21:45;8.25;;;4.35;;
18302;SDS011;9277;37.980;23.748;2023-12-29T12:24:12;12.02;;;5.13;;
18302;SDS011;9277;37.980;23.748;2023-12-29T12:26:40;7.13;;;4.38;;
18302;SDS011;9277;37.980;23.748;2023-12-29T12:29:07;9.93;;;4.78;;
18302;SDS011;9277;37.980;23.748;2023-12-29T12:31:34;7.47;;;4.28;;
18302;SDS011;9277;37.980;23.748;2023-12-29T12:34:02;10.52;;;4.43;;
18302;SDS011;9277;37.980;23.748;2023-12-29T12:36:31;13.07;;;5.63;;
18302;SDS011;9277;37.980;23.748;2023-12-29T12:38:58;10.70;;;5.07;;
18302;SDS011;9277;37.980;23.748;2023-12-29T12:41:25;10.60;;;5.38;;
18302;SDS011;9277;37.980;23.748;2023-12-29T12:43:55;6.50;;;4.72;;
18302;SDS011;9277;37.980;23.748;2023-12-29T12:46:23;13.38;;;4.90;;
18302;SDS011;9277;37.980;23.748;2023-12-29T12:48:51;9.35;;;4.03;;
18302;SDS011;9277;37.980;23.748;2023-12-29T12:51:20;6.20;;;3.85;;
18302;SDS011;9277;37.980;23.748;2023-12-29T12:53:47;7.43;;;3.78;;
18302;SDS011;9277;37.980;23.748;2023-12-29T12:56:15;4.82;;;3.08;;
18302;SDS011;9277;37.980;23.748;2023-12-29T12:58:42;6.50;;;4.43;;
18302;SDS011;9277;37.980;23.748;2023-12-29T13:01:09;17.08;;;6.88;;
18302;SDS011;9277;37.980;23.748;2023-12-29T13:03:36;9.07;;;3.83;;
18302;SDS011;9277;37.980;23.748;2023-12-29T13:06:05;9.93;;;3.85;;
18302;SDS011;9277;37.980;23.748;2023-12-29T13:08:33;9.38;;;4.10;;
18302;SDS011;9277;37.980;23.748;2023-12-29T13:11:00;9.25;;;4.22;;
18302;SDS011;9277;37.980;23.748;2023-12-29T13:13:35;12.63;;;4.57;;
18302;SDS011;9277;37.980;23.748;2023-12-29T13:16:02;7.97;;;4.22;;
18302;SDS011;9277;37.980;23.748;2023-12-29T13:18:29;7.82;;;4.28;;
18302;SDS011;9277;37.980;23.748;2023-12-29T13:20:57;8.90;;;3.80;;
18302;SDS011;9277;37.980;23.748;2023-12-29T13:23:25;11.48;;;5.00;;
18302;SDS011;9277;37.980;23.748;2023-12-29T13:25:53;12.70;;;4.72;;
18302;SDS011;9277;37.980;23.748;2023-12-29T13:28:20;8.98;;;5.00;;
18302;SDS011;9277;37.980;23.748;2023-12-29T13:30:47;7.05;;;4.03;;
18302;SDS011;9277;37.980;23.748;2023-12-29T13:33:15;10.68;;;5.95;;
18302;SDS011;9277;37.980;23.748;2023-12-29T13:35:46;9.18;;;4.57;;
18302;SDS011;9277;37.980;23.748;2023-12-29T13:38:16;9.55;;;4.63;;
18302;SDS011;9277;37.980;23.748;2023-12-29T13:40:51;7.75;;;4.72;;
18302;SDS011;9277;37.980;23.748;2023-12-29T13:43:22;8.77;;;5.22;;
18302;SDS011;9277;37.980;23.748;2023-12-29T13:45:49;11.98;;;5.40;;
18302;SDS011;9277;37.980;23.748;2023-12-29T13:48:17;9.38;;;5.55;;
18302;SDS011;9277;37.980;23.748;2023-12-29T13:50:44;13.23;;;5.30;;
18302;SDS011;9277;37.980;23.748;2023-12-29T13:53:15;8.50;;;5.00;;
18302;SDS011;9277;37.980;23.748;2023-12-29T13:55:42;7.55;;;4.45;;
18302;SDS011;9277;37.980;23.748;2023-12-29T13:58:09;11.38;;;5.43;;
18302;SDS011;9277;37.980;23.748;2023-12-29T14:00:39;12.02;;;5.50;;
18302;SDS011;9277;37.980;23.748;2023-12-29T14:03:09;12.50;;;5.75;;
18302;SDS011;9277;37.980;23.748;2023-12-29T14:05:39;8.90;;;4.85;;
18302;SDS011;9277;37.980;23.748;2023-12-29T14:08:08;11.27;;;5.15;;
18302;SDS011;9277;37.980;23.748;2023-12-29T14:10:35;7.13;;;4.97;;
18302;SDS011;9277;37.980;23.748;2023-12-29T14:13:03;10.95;;;5.10;;
18302;SDS011;9277;37.980;23.748;2023-12-29T14:15:33;10.93;;;5.00;;
18302;SDS011;9277;37.980;23.748;2023-12-29T14:18:02;6.03;;;4.13;;
18302;SDS011;9277;37.980;23.748;2023-12-29T14:20:33;11.50;;;5.22;;
18302;SDS011;9277;37.980;23.748;2023-12-29T14:23:03;9.85;;;5.43;;
18302;SDS011;9277;37.980;23.748;2023-12-29T14:25:31;11.02;;;5.40;;
18302;SDS011;9277;37.980;23.748;2023-12-29T14:28:01;6.82;;;4.50;;
18302;SDS011;9277;37.980;23.748;2023-12-29T14:30:28;9.27;;;5.22;;
18302;SDS011;9277;37.980;23.748;2023-12-29T14:32:56;13.05;;;5.93;;
18302;SDS011;9277;37.980;23.748;2023-12-29T14:35:25;9.07;;;5.57;;
18302;SDS011;9277;37.980;23.748;2023-12-29T14:37:52;13.35;;;5.75;;
18302;SDS011;9277;37.980;23.748;2023-12-29T14:40:19;8.63;;;4.88;;
18302;SDS011;9277;37.980;23.748;2023-12-29T14:42:46;10.75;;;4.70;;
18302;SDS011;9277;37.980;23.748;2023-12-29T14:45:12;10.52;;;5.75;;
18302;SDS011;9277;37.980;23.748;2023-12-29T14:47:40;9.40;;;5.15;;
18302;SDS011;9277;37.980;23.748;2023-12-29T14:50:07;9.43;;;4.93;;
18302;SDS011;9277;37.980;23.748;2023-12-29T14:52:35;8.52;;;4.75;;